Arizona Airport

BW-0021 · Central, Botswana

METAR history BW-0021 · Arizona Airport

Below you see METARs of the last few days. Select a year to browse through older METARs, from the year 2007 onwards.

July 18, 2024

Time Code Weather Temp. Visibility Ceiling Wind METAR/SPECI
07:00
V
5 °C 10 km+ - 200° 200° 4 kt METAR FAPP 180500Z 20004KT CAVOK 05/M01 Q1027 NOSIG
06:00
V
6 °C 8 km - 200° 200° 3 kt METAR FAPP 180400Z 20003KT 8000 NSC 06/M00 Q1026 NOSIG
05:00
U
7 °C 0 m - 200° 200° 4 kt METAR FAPP 180300Z AUTO 20004KT //// // ////// 07/M01 Q1026
04:00
U
7 °C 0 m - 200° 200° 6 kt METAR FAPP 180200Z AUTO 20006KT //// // ////// 07/M02 Q1026
03:00
U
8 °C 0 m - 210° 210° 5 kt METAR FAPP 180100Z AUTO 21005KT //// // ////// 08/M02 Q1026
02:00
U
7 °C 0 m - 200° 200° 6 kt METAR FAPP 180000Z AUTO 20006KT //// // ////// 07/M03 Q1026
01:00
U
7 °C 0 m - 200° 200° 5 kt METAR FAPP 172300Z AUTO 20005KT //// // ////// 07/M03 Q1026
00:00
U
8 °C 0 m - 210° 210° 5 kt METAR FAPP 172200Z AUTO 21005KT //// // ////// 08/M03 Q1026

July 17, 2024

Time Code Weather Temp. Visibility Ceiling Wind METAR/SPECI
23:00
U
10 °C 0 m - 200° 200° 5 kt METAR FAPP 172100Z AUTO 20005KT //// // ////// 10/M04 Q1027
22:00
U
11 °C 0 m - 200° 200° 5 kt METAR FAPP 172000Z AUTO 20005KT //// // ////// 11/M04 Q1027
21:00
U
12 °C 0 m - 190° 190° 4 kt METAR FAPP 171900Z AUTO 19004KT //// // ////// 12/M05 Q1027
20:00
V
14 °C 8 km - 210° 210° 2 kt METAR FAPP 171800Z 21002KT 8000 NSC 14/M05 Q1026 NOSIG
19:00
V
16 °C 10 km+ - 100° 100° 6 kt METAR FAPP 171700Z 10006KT CAVOK 16/M07 Q1025 NOSIG
18:00
V
20 °C 10 km+ - 010° 010° 1 kt METAR FAPP 171600Z 01001KT CAVOK 20/M08 Q1025 NOSIG
17:00
V
26 °C 10 km+ - 340° 340° 2 kt METAR FAPP 171500Z 34002KT CAVOK 26/M07 Q1024 NOSIG
16:00
U
27 °C 0 m - 050° 050° 4 kt METAR FAPP 171400Z 05004KT //// ////// 27/M08 Q1024
15:00
V
27 °C 10 km+ - 340° 340° 3 kt METAR FAPP 171300Z 34003KT CAVOK 27/M07 Q1024 NOSIG
14:00
V
26 °C 10 km+ - 050° 050° 3 kt METAR FAPP 171200Z 05003KT CAVOK 26/M06 Q1024 NOSIG
13:00
U
26 °C 0 m - 160° 160° 3 kt METAR FAPP 171100Z AUTO 16003KT //// // ////// 26/M07 Q1025
12:00
U
26 °C 0 m - 220° 220° 6 kt METAR FAPP 171000Z AUTO 22006KT //// // ////// 26/M07 Q1026
11:00
V
24 °C 10 km+ - 230° 230° 4 kt METAR FAPP 170900Z 23004KT CAVOK 24/M05 Q1027 NOSIG
10:00
V
22 °C 10 km+ - 020° 020° 1 kt METAR FAPP 170800Z 02001KT CAVOK 22/M00 Q1027 NOSIG
09:00
U
17 °C 0 m - 360° 360° 1 kt METAR FAPP 170700Z AUTO 36001KT //// // ////// 17/02 Q1027
08:00
V
9 °C 10 km+ - 220° 220° 2 kt METAR FAPP 170600Z 22002KT CAVOK 09/03 Q1026 NOSIG
07:00
V
5 °C 10 km+ - 200° 200° 5 kt METAR FAPP 170500Z 20005KT CAVOK 05/02 Q1025 NOSIG
06:00
V
6 °C 10 km+ - 190° 190° 6 kt METAR FAPP 170400Z 19006KT CAVOK 06/04 Q1025 NOSIG
05:00
U
6 °C 0 m - 220° 220° 5 kt METAR FAPP 170300Z AUTO 22005KT //// // ////// 06/04 Q1025
04:00
U
7 °C 0 m - 200° 200° 6 kt METAR FAPP 170200Z AUTO 20006KT //// // ////// 07/04 Q1024
03:00
U
8 °C 0 m - 210° 210° 5 kt METAR FAPP 170100Z AUTO 21005KT //// // ////// 08/04 Q1024
02:00
U
6 °C 0 m - 200° 200° 4 kt METAR FAPP 170000Z AUTO 20004KT //// // ////// 06/02 Q1024
01:00
U
9 °C 0 m - 180° 180° 6 kt METAR FAPP 162300Z AUTO 18006KT //// // ////// 09/04 Q1025
00:00
U
9 °C 0 m - 200° 200° 4 kt METAR FAPP 162200Z AUTO 20004KT //// // ////// 09/03 Q1025

July 16, 2024

Time Code Weather Temp. Visibility Ceiling Wind METAR/SPECI
23:00
U
9 °C 0 m - 220° 220° 4 kt METAR FAPP 162100Z AUTO 22004KT //// // ////// 09/03 Q1026
22:00
U
9 °C 0 m - 210° 210° 3 kt METAR FAPP 162000Z AUTO 21003KT //// // ////// 09/02 Q1025
21:00
U
11 °C 0 m - 190° 190° 2 kt METAR FAPP 161900Z AUTO 19002KT //// // ////// 11/02 Q1025
20:00
V
14 °C 8 km - 360° 360° 0 kt METAR FAPP 161800Z 00000KT 8000 NSC 14/02 Q1025 NOSIG
19:00
V
15 °C 8 km - 340° 340° 4 kt METAR FAPP 161700Z 34004KT 8000 NSC 15/03 Q1024 NOSIG
18:00
V
16 °C 10 km+ - 340° 340° 5 kt METAR FAPP 161600Z 34005KT CAVOK 16/03 Q1024 NOSIG
17:00
V
21 °C 10 km+ - 300° 300° 5 kt METAR FAPP 161500Z 30005KT CAVOK 21/03 Q1024 NOSIG
16:00
V
23 °C 10 km+ - 310° 310° 7 kt METAR FAPP 161400Z 31007KT CAVOK 23/03 Q1023 NOSIG
15:00
V
23 °C 8 km - 320° 320° 7 kt METAR FAPP 161300Z 32007KT 8000 NSC 23/04 Q1023 BECMG 9999 NSW
14:00
V
23 °C 8 km - 330° 330° 7 kt METAR FAPP 161200Z 33007KT 8000 NSC 23/06 Q1024 BECMG 9999 NSW
13:00
M
21 °C 7 km - 310° 310° 7 kt METAR FAPP 161100Z 31007KT 7000 NSC 21/08 Q1025 BECMG 9999 NSW
12:00
M
18 °C 7 km - 360° 360° 5 kt METAR FAPP 161000Z 36005KT 7000 NSC 18/10 Q1026 NOSIG
11:00
I
14 °C 5 km 800 ft 030° 030° 3 kt METAR FAPP 160900Z 03003KT 5000 BR BKN008 14/10 Q1027 REFG BECMG 9999 NSW BKN015
10:00
L
12 °C 1 km 300 ft 020° 020° 2 kt METAR FAPP 160800Z 02002KT 1000 VCFG OVC003 12/10 Q1028 BECMG 5000 BR BKN010
09:00
L
9 °C 200 m 100 ft 090° 090° 1 kt METAR FAPP 160700Z 09001KT 0200 FG OVC001 09/09 Q1028 REFG BECMG 3000 BR BKN005
08:00
L
7 °C 200 m 100 ft 230° 230° 1 kt METAR FAPP 160600Z 23001KT 0200 FG OVC001 07/07 Q1027 BECMG 3000 BR BKN005
Report a change